Time;durP1;ratioP1;P1;durP2;ratioP2;P2;SDS_P1;SDS_P2;PMS_P1;PMS_P2;Temp;Humidity;BMP_temperature;BMP_pressure;BME280_temperature;BME280_humidity;BME280_pressure;Samples;Min_cycle;Max_cycle;Signal;HPM_P1;HPM_P2
2022/01/28 00:01:15;;;;;;;19.90;13.88;;;4.10;99.90;;;;;;5047714;28;20192;-73
2022/01/28 00:04:11;;;;;;;18.42;13.27;;;4.00;99.90;;;;;;5051046;28;20216;-73
2022/01/28 00:06:57;;;;;;;22.02;14.40;;;4.00;99.90;;;;;;5056071;28;20220;-73
2022/01/28 00:09:44;;;;;;;20.10;13.65;;;3.90;99.90;;;;;;5045029;28;20220;-73
2022/01/28 00:12:31;;;;;;;21.15;15.75;;;3.90;99.90;;;;;;5045312;28;20247;-72
2022/01/28 00:15:23;;;;;;;24.88;18.10;;;3.80;99.90;;;;;;5053465;28;20205;-73
2022/01/28 00:18:40;;;;;;;25.10;14.95;;;3.90;99.90;;;;;;5050853;28;20200;-73
2022/01/28 00:36:59;;;;;;;25.00;16.25;;;3.80;99.90;;;;;;5059116;28;20486;-73
2022/01/28 00:39:45;;;;;;;20.25;14.45;;;3.70;99.90;;;;;;5044205;28;20331;-73
2022/01/28 00:42:31;;;;;;;24.42;15.55;;;3.70;99.90;;;;;;5053689;28;20286;-73
2022/01/28 00:45:18;;;;;;;19.30;14.52;;;3.70;99.90;;;;;;5051552;28;20595;-73
2022/01/28 00:48:05;;;;;;;23.25;15.23;;;3.60;99.90;;;;;;5058916;28;20200;-73
2022/01/28 00:50:50;;;;;;;26.45;16.75;;;3.70;99.90;;;;;;5055797;28;20736;-73
2022/01/28 00:53:36;;;;;;;28.35;16.85;;;3.70;99.90;;;;;;5042903;28;20966;-73
2022/01/28 00:56:21;;;;;;;20.33;14.23;;;3.70;99.90;;;;;;5062107;28;20610;-73
2022/01/28 00:59:07;;;;;;;26.02;16.50;;;3.70;99.90;;;;;;5055217;28;20570;-74
2022/01/28 01:01:54;;;;;;;22.33;15.32;;;3.70;99.90;;;;;;5050250;28;20204;-73
2022/01/28 01:04:40;;;;;;;24.52;15.25;;;3.70;99.90;;;;;;5048998;28;20199;-73
2022/01/28 01:07:26;;;;;;;22.73;14.80;;;3.60;99.90;;;;;;5061754;28;20223;-72
2022/01/28 01:10:12;;;;;;;22.73;15.88;;;3.60;99.90;;;;;;5046049;28;20224;-73
2022/01/28 01:12:57;;;;;;;21.55;14.27;;;3.60;99.90;;;;;;5055172;28;20275;-73
2022/01/28 01:15:46;;;;;;;22.25;14.95;;;3.60;99.90;;;;;;5047489;28;20204;-73
2022/01/28 01:18:39;;;;;;;22.45;14.75;;;3.60;99.90;;;;;;5057534;28;20691;-72
2022/01/28 01:21:27;;;;;;;20.65;14.60;;;3.70;99.90;;;;;;5057928;28;20200;-72
2022/01/28 01:24:21;;;;;;;23.67;15.05;;;3.70;99.90;;;;;;5053508;28;20252;-72
2022/01/28 01:27:07;;;;;;;23.83;16.02;;;3.70;99.90;;;;;;5061579;28;20225;-72
2022/01/28 01:29:53;;;;;;;20.60;14.02;;;3.70;99.90;;;;;;5053251;28;20235;-73
2022/01/28 01:32:38;;;;;;;19.80;14.90;;;3.80;99.90;;;;;;5053249;28;20860;-73
2022/01/28 01:35:25;;;;;;;20.65;14.57;;;3.80;99.90;;;;;;5064349;28;20678;-73
2022/01/28 01:38:11;;;;;;;21.13;15.05;;;3.80;99.90;;;;;;5050170;28;20196;-72
2022/01/28 01:41:00;;;;;;;22.27;14.80;;;3.80;99.90;;;;;;5057985;28;20201;-73
2022/01/28 01:43:55;;;;;;;26.48;15.20;;;3.80;99.90;;;;;;5061915;28;20300;-72
2022/01/28 01:46:59;;;;;;;23.55;14.35;;;3.80;99.90;;;;;;5051561;28;20274;-72
2022/01/28 01:52:49;;;;;;;23.15;15.50;;;3.90;99.90;;;;;;5061093;28;20207;-72
2022/01/28 01:55:35;;;;;;;22.48;15.65;;;3.90;99.90;;;;;;5064993;28;20563;-72
2022/01/28 01:58:25;;;;;;;23.40;15.85;;;3.90;99.90;;;;;;5055145;28;20256;-72
2022/01/28 02:01:11;;;;;;;24.35;15.40;;;3.90;99.90;;;;;;5062527;28;20196;-72
2022/01/28 02:03:56;;;;;;;23.20;16.25;;;3.90;99.90;;;;;;5054005;28;20201;-72
2022/01/28 02:06:42;;;;;;;25.20;16.10;;;3.90;99.90;;;;;;5054871;28;20224;-72
2022/01/28 02:09:29;;;;;;;24.17;15.73;;;3.90;99.90;;;;;;5053437;28;20201;-72
2022/01/28 02:12:14;;;;;;;28.23;17.83;;;3.90;99.90;;;;;;5053517;28;20204;-72
2022/01/28 02:15:00;;;;;;;21.23;15.77;;;3.90;99.90;;;;;;5053682;28;20571;-72
2022/01/28 02:17:45;;;;;;;21.70;14.93;;;4.00;99.90;;;;;;5048130;28;20237;-73
2022/01/28 02:20:35;;;;;;;19.67;15.70;;;4.00;99.90;;;;;;5047422;28;20317;-73
2022/01/28 02:23:23;;;;;;;23.55;16.42;;;4.00;99.90;;;;;;5058738;28;20567;-72
2022/01/28 02:26:13;;;;;;;23.83;15.63;;;4.10;99.90;;;;;;5059095;28;20224;-72
2022/01/28 02:29:07;;;;;;;22.77;16.13;;;4.10;99.90;;;;;;5046145;28;20208;-73
2022/01/28 02:31:52;;;;;;;22.75;15.20;;;4.10;99.90;;;;;;5057721;28;20200;-72
2022/01/28 02:34:40;;;;;;;22.45;14.75;;;4.20;99.90;;;;;;5053985;28;20330;-72
2022/01/28 02:37:27;;;;;;;21.27;15.82;;;4.20;99.90;;;;;;5055993;28;20221;-72
2022/01/28 02:40:13;;;;;;;24.75;15.27;;;4.20;99.90;;;;;;5059653;28;20680;-72
2022/01/28 02:43:03;;;;;;;23.00;14.73;;;4.20;99.90;;;;;;5052134;28;20201;-72
2022/01/28 02:45:51;;;;;;;20.00;13.63;;;4.20;99.90;;;;;;5051813;28;20336;-72
2022/01/28 02:48:39;;;;;;;21.92;14.60;;;4.20;99.90;;;;;;5045811;28;20212;-72
2022/01/28 02:51:25;;;;;;;23.23;15.88;;;4.20;99.90;;;;;;5063398;28;20321;-72
2022/01/28 02:54:15;;;;;;;23.00;14.88;;;4.20;99.90;;;;;;5061156;28;20209;-72
2022/01/28 02:57:04;;;;;;;22.08;15.40;;;4.20;99.90;;;;;;5063252;28;20568;-72
2022/01/28 02:59:50;;;;;;;22.55;15.10;;;4.10;99.90;;;;;;5053452;28;20188;-72
2022/01/28 03:02:36;;;;;;;24.88;14.60;;;4.10;99.90;;;;;;5059776;28;20195;-72
2022/01/28 03:05:32;;;;;;;21.70;14.30;;;4.10;99.90;;;;;;5052254;28;20331;-72
2022/01/28 03:08:22;;;;;;;23.25;15.00;;;4.10;99.90;;;;;;5042656;28;20709;-72
2022/01/28 03:14:20;;;;;;;19.98;14.05;;;4.10;99.90;;;;;;5056031;28;20306;-73
2022/01/28 03:17:13;;;;;;;19.67;14.55;;;4.10;99.90;;;;;;5058313;28;20728;-72
2022/01/28 03:20:17;;;;;;;21.33;15.38;;;4.10;99.90;;;;;;5063615;28;20703;-72
2022/01/28 03:23:02;;;;;;;18.80;14.15;;;4.10;99.90;;;;;;5047852;28;20287;-73
2022/01/28 03:25:48;;;;;;;23.25;13.93;;;4.00;99.90;;;;;;5046462;28;20233;-72
2022/01/28 03:28:36;;;;;;;21.58;14.57;;;4.00;99.90;;;;;;5057695;28;20688;-72
2022/01/28 03:31:21;;;;;;;26.15;14.52;;;4.00;99.90;;;;;;5060297;28;20306;-72
2022/01/28 03:34:08;;;;;;;18.67;14.00;;;4.00;99.90;;;;;;5051093;28;20196;-73
2022/01/28 03:36:54;;;;;;;21.25;14.68;;;4.00;99.90;;;;;;5050235;28;20224;-72
2022/01/28 03:39:39;;;;;;;22.27;14.93;;;4.00;99.90;;;;;;5053859;28;20208;-73
2022/01/28 03:42:25;;;;;;;27.52;15.13;;;4.00;99.90;;;;;;5057411;28;20200;-72
2022/01/28 03:45:12;;;;;;;20.02;13.90;;;4.00;99.90;;;;;;5050101;28;20201;-72
2022/01/28 03:47:58;;;;;;;24.23;14.15;;;3.90;99.90;;;;;;5048699;28;20211;-72
2022/01/28 03:50:43;;;;;;;23.52;14.20;;;3.90;99.90;;;;;;5050568;28;20197;-72
2022/01/28 03:53:28;;;;;;;24.05;14.02;;;4.00;99.90;;;;;;5043842;28;20204;-72
2022/01/28 03:56:14;;;;;;;23.73;14.40;;;3.90;99.90;;;;;;5057566;28;20221;-72
2022/01/28 03:59:00;;;;;;;22.92;14.70;;;4.00;99.90;;;;;;5056747;28;20204;-72
2022/01/28 04:01:49;;;;;;;20.42;14.63;;;3.90;99.90;;;;;;5043914;28;20689;-72
2022/01/28 04:13:47;;;;;;;19.20;12.20;;;4.00;99.90;;;;;;5055225;28;20222;-73
2022/01/28 04:17:18;;;;;;;23.50;14.27;;;4.00;99.90;;;;;;5043397;28;20216;-73
2022/01/28 04:19:40;;;;;;;21.73;13.95;;;4.00;99.90;;;;;;5055845;28;20197;-72
2022/01/28 04:22:26;;;;;;;21.38;13.68;;;4.00;99.90;;;;;;5059243;28;20199;-72
2022/01/28 04:25:12;;;;;;;27.58;15.05;;;4.00;99.90;;;;;;5063118;28;20683;-73
2022/01/28 04:27:58;;;;;;;21.52;14.73;;;4.00;99.90;;;;;;5044461;28;20205;-72
2022/01/28 04:30:43;;;;;;;22.13;14.82;;;3.90;99.90;;;;;;5041932;28;20230;-72
2022/01/28 04:33:29;;;;;;;25.77;15.07;;;3.90;99.90;;;;;;5055284;28;20195;-72
2022/01/28 04:36:17;;;;;;;21.05;14.48;;;4.00;99.90;;;;;;5052112;28;20225;-72
2022/01/28 04:39:10;;;;;;;24.23;14.70;;;4.00;99.90;;;;;;5062034;28;20282;-72
2022/01/28 04:42:04;;;;;;;23.88;13.50;;;4.00;99.90;;;;;;5042126;28;20779;-72
2022/01/28 04:44:59;;;;;;;21.38;15.15;;;4.00;99.90;;;;;;5042491;28;20196;-72
2022/01/28 04:47:55;;;;;;;20.07;15.23;;;3.90;99.90;;;;;;5011555;28;1199770;-72
2022/01/28 04:50:51;;;;;;;20.20;14.18;;;3.90;99.90;;;;;;5049001;28;20204;-73
2022/01/28 04:53:49;;;;;;;27.00;15.02;;;3.90;99.90;;;;;;5053220;28;20209;-72
2022/01/28 04:56:52;;;;;;;20.65;12.52;;;3.80;99.90;;;;;;5045574;28;20266;-72
2022/01/28 04:59:51;;;;;;;20.85;14.40;;;3.80;99.90;;;;;;5056523;28;20695;-72
2022/01/28 05:09:30;;;;;;;19.98;13.32;;;3.70;99.90;;;;;;5052960;28;20290;-72
2022/01/28 05:15:56;;;;;;;20.65;14.10;;;3.60;99.90;;;;;;5005313;28;20289;-73
2022/01/28 05:27:55;;;;;;;18.38;13.15;;;3.60;99.90;;;;;;5058137;28;20209;-73
2022/01/28 05:30:40;;;;;;;19.92;12.95;;;3.60;99.90;;;;;;5049224;28;20680;-73
2022/01/28 05:33:26;;;;;;;24.08;13.18;;;3.50;99.90;;;;;;5054458;28;20208;-72
2022/01/28 05:36:12;;;;;;;22.02;14.85;;;3.50;99.90;;;;;;5056799;28;20225;-72
2022/01/28 05:38:58;;;;;;;21.63;13.38;;;3.50;99.90;;;;;;5061334;28;20195;-72
2022/01/28 05:41:45;;;;;;;20.27;13.45;;;3.40;99.90;;;;;;5051271;28;20196;-73
2022/01/28 05:44:31;;;;;;;20.23;12.82;;;3.40;99.90;;;;;;5055870;28;20320;-73
2022/01/28 05:47:16;;;;;;;23.70;14.13;;;3.30;99.90;;;;;;5056784;28;20237;-73
2022/01/28 05:50:02;;;;;;;18.92;13.50;;;3.40;99.90;;;;;;5063562;28;20204;-73
2022/01/28 05:52:48;;;;;;;22.65;14.98;;;3.30;99.90;;;;;;5050510;28;20627;-73
2022/01/28 05:55:34;;;;;;;20.40;13.40;;;3.30;99.90;;;;;;5042906;28;20765;-73
2022/01/28 05:58:21;;;;;;;18.98;13.23;;;3.30;99.90;;;;;;5041270;28;20201;-73
2022/01/28 06:01:07;;;;;;;23.20;14.70;;;3.30;99.90;;;;;;5054032;28;20193;-73
2022/01/28 06:03:53;;;;;;;18.48;12.35;;;3.40;99.90;;;;;;5049683;28;20213;-73
2022/01/28 06:06:38;;;;;;;20.30;13.52;;;3.50;99.90;;;;;;5059562;28;20728;-73
2022/01/28 06:09:24;;;;;;;24.95;13.55;;;3.40;99.90;;;;;;5058762;28;20195;-73
2022/01/28 06:12:10;;;;;;;25.35;15.20;;;3.40;99.90;;;;;;5049036;28;20217;-73
2022/01/28 06:14:57;;;;;;;21.63;14.52;;;3.40;99.90;;;;;;5050124;28;20636;-73
2022/01/28 06:17:43;;;;;;;23.45;15.50;;;3.40;99.90;;;;;;5061494;28;20732;-73
2022/01/28 06:20:29;;;;;;;29.27;17.38;;;3.50;99.90;;;;;;5052605;28;20309;-73
2022/01/28 06:23:15;;;;;;;23.95;14.65;;;3.50;99.90;;;;;;5058610;28;20774;-73
2022/01/28 06:26:01;;;;;;;22.88;15.75;;;3.60;99.90;;;;;;5054736;28;20273;-73
2022/01/28 06:28:47;;;;;;;27.05;15.88;;;3.70;99.90;;;;;;5052657;28;20275;-73
2022/01/28 06:31:34;;;;;;;23.52;14.35;;;3.70;99.90;;;;;;5062674;28;20201;-73
2022/01/28 06:34:20;;;;;;;23.35;14.13;;;3.80;99.90;;;;;;5056914;28;20325;-73
2022/01/28 06:37:05;;;;;;;32.15;16.42;;;3.80;99.90;;;;;;5058328;28;20221;-72
2022/01/28 06:39:51;;;;;;;21.13;14.63;;;3.90;99.90;;;;;;5056660;28;20253;-73
2022/01/28 06:42:36;;;;;;;26.20;13.68;;;3.90;99.90;;;;;;5055472;28;20200;-73
2022/01/28 06:45:22;;;;;;;24.55;13.35;;;4.00;99.90;;;;;;5053284;28;20782;-73
2022/01/28 06:48:10;;;;;;;25.52;14.20;;;4.00;99.90;;;;;;5058219;28;20213;-73
2022/01/28 06:50:56;;;;;;;22.23;13.10;;;4.00;99.90;;;;;;5060606;28;20196;-73
2022/01/28 06:53:41;;;;;;;20.90;13.27;;;4.00;99.90;;;;;;5051756;28;20197;-73
2022/01/28 06:56:27;;;;;;;22.92;13.60;;;4.00;99.90;;;;;;5055888;28;20287;-73
2022/01/28 06:59:12;;;;;;;21.13;13.25;;;4.00;99.90;;;;;;5055725;28;20247;-73
2022/01/28 07:01:58;;;;;;;31.45;14.93;;;4.00;99.90;;;;;;5052820;28;20202;-73
2022/01/28 07:04:45;;;;;;;22.00;13.02;;;4.00;99.90;;;;;;5040340;28;20213;-73
2022/01/28 07:07:31;;;;;;;21.02;12.95;;;4.00;99.90;;;;;;5052430;28;20291;-72
2022/01/28 07:10:16;;;;;;;24.13;13.13;;;4.00;99.90;;;;;;5047819;28;20223;-72
2022/01/28 07:13:02;;;;;;;29.85;14.48;;;4.00;99.90;;;;;;5057142;28;21131;-73
2022/01/28 07:15:51;;;;;;;20.23;12.93;;;4.00;99.90;;;;;;5046292;28;20224;-72
2022/01/28 07:18:37;;;;;;;24.38;13.02;;;4.10;99.90;;;;;;5055239;28;20309;-73
2022/01/28 07:21:24;;;;;;;23.52;14.00;;;4.10;99.90;;;;;;5057284;28;20208;-72
2022/01/28 07:24:10;;;;;;;24.70;13.40;;;4.10;99.90;;;;;;5056008;28;20689;-72
2022/01/28 07:26:55;;;;;;;21.23;11.95;;;4.10;99.90;;;;;;5059696;28;20219;-72
2022/01/28 07:29:41;;;;;;;29.58;13.20;;;4.10;99.90;;;;;;5056189;28;20203;-72
2022/01/28 07:32:26;;;;;;;25.50;15.23;;;4.10;99.90;;;;;;5058516;28;20200;-73
2022/01/28 07:35:13;;;;;;;19.85;12.70;;;4.20;99.90;;;;;;5051207;28;20291;-73
2022/01/28 07:38:00;;;;;;;21.13;13.25;;;4.10;99.90;;;;;;5053346;28;20193;-73
2022/01/28 07:40:45;;;;;;;18.50;11.65;;;4.20;99.90;;;;;;5048507;28;20208;-73
2022/01/28 07:43:31;;;;;;;21.48;13.05;;;4.10;99.90;;;;;;5038168;28;20197;-72
2022/01/28 07:46:17;;;;;;;23.25;12.88;;;4.20;99.90;;;;;;5062169;28;20321;-72
2022/01/28 07:49:03;;;;;;;21.85;12.90;;;4.20;99.90;;;;;;5053478;28;20225;-72
2022/01/28 07:51:48;;;;;;;31.38;11.57;;;4.20;99.90;;;;;;5051178;28;20204;-72
2022/01/28 07:54:36;;;;;;;17.48;11.63;;;4.20;99.90;;;;;;5056784;28;20563;-72
2022/01/28 07:57:21;;;;;;;24.45;11.80;;;4.10;99.90;;;;;;5052421;28;20695;-72
2022/01/28 08:00:09;;;;;;;20.23;12.07;;;4.10;99.90;;;;;;5051459;28;20198;-72
2022/01/28 08:02:54;;;;;;;20.27;12.20;;;4.10;99.90;;;;;;5043215;28;20200;-72
2022/01/28 08:05:40;;;;;;;17.55;12.40;;;4.10;99.90;;;;;;5054822;28;20200;-72
2022/01/28 08:08:25;;;;;;;17.98;11.70;;;4.10;99.90;;;;;;5054253;28;20677;-72
2022/01/28 08:11:13;;;;;;;20.48;12.63;;;4.00;99.90;;;;;;5050682;28;20208;-70
2022/01/28 08:13:58;;;;;;;19.50;11.57;;;4.10;99.90;;;;;;5035498;28;20261;-72
2022/01/28 08:16:44;;;;;;;19.70;12.18;;;4.10;99.90;;;;;;5047948;28;20233;-72
2022/01/28 08:19:30;;;;;;;19.08;11.73;;;4.10;99.90;;;;;;5059265;28;20200;-72
2022/01/28 08:22:15;;;;;;;21.77;10.95;;;4.10;99.90;;;;;;5056457;28;20237;-72
2022/01/28 08:25:01;;;;;;;19.23;10.27;;;4.10;99.90;;;;;;5062690;28;20204;-72
2022/01/28 08:27:49;;;;;;;19.70;11.15;;;4.10;99.90;;;;;;5053944;28;20239;-72
2022/01/28 08:30:37;;;;;;;22.35;11.38;;;4.00;99.90;;;;;;5048854;28;20200;-72
2022/01/28 08:33:23;;;;;;;23.17;11.80;;;4.10;99.90;;;;;;5056288;28;20732;-73
2022/01/28 08:36:09;;;;;;;16.40;10.40;;;4.10;99.90;;;;;;5062257;28;20762;-73
2022/01/28 08:38:56;;;;;;;16.35;11.00;;;4.20;99.90;;;;;;5059376;28;20204;-72
2022/01/28 08:41:42;;;;;;;15.65;9.85;;;4.30;99.90;;;;;;5042997;28;20204;-72
2022/01/28 08:44:30;;;;;;;21.45;10.25;;;4.30;99.90;;;;;;5054521;28;20204;-72
2022/01/28 08:47:16;;;;;;;17.05;11.10;;;4.30;99.90;;;;;;5060196;28;20622;-72
2022/01/28 08:50:01;;;;;;;20.65;9.23;;;4.30;99.90;;;;;;5055891;28;20220;-72
2022/01/28 08:52:47;;;;;;;16.08;11.05;;;4.40;99.90;;;;;;5043148;28;20203;-72
2022/01/28 08:55:33;;;;;;;19.48;10.45;;;4.50;99.90;;;;;;5041447;28;20671;-72
2022/01/28 08:58:19;;;;;;;21.98;10.10;;;4.60;99.90;;;;;;5052978;28;20246;-72
2022/01/28 09:01:06;;;;;;;19.20;9.88;;;4.60;99.90;;;;;;5045438;28;20196;-70
2022/01/28 09:03:52;;;;;;;17.75;10.30;;;4.50;99.90;;;;;;5058333;28;20196;-73
2022/01/28 09:06:37;;;;;;;16.80;9.35;;;4.60;99.90;;;;;;5055902;28;20212;-73
2022/01/28 09:09:23;;;;;;;20.52;10.45;;;4.60;99.90;;;;;;5055618;28;20220;-73
2022/01/28 09:12:26;;;;;;;13.73;9.20;;;4.50;99.90;;;;;;5048195;28;20212;-72
2022/01/28 09:15:12;;;;;;;23.00;10.23;;;4.60;99.90;;;;;;5051841;28;20200;-70
2022/01/28 09:18:00;;;;;;;18.70;10.35;;;4.50;99.90;;;;;;5049929;28;20255;-70
2022/01/28 09:20:45;;;;;;;16.52;9.77;;;4.60;99.90;;;;;;5044141;28;20213;-71
2022/01/28 09:23:31;;;;;;;16.50;8.80;;;4.60;99.90;;;;;;5050402;28;20204;-72
2022/01/28 09:26:17;;;;;;;12.52;7.40;;;4.70;99.90;;;;;;5057163;28;20237;-72
2022/01/28 09:29:04;;;;;;;14.00;8.20;;;4.80;99.90;;;;;;5062960;28;20216;-72
2022/01/28 09:31:50;;;;;;;13.48;6.28;;;4.80;99.90;;;;;;5043905;28;20850;-71
2022/01/28 09:34:36;;;;;;;19.77;7.68;;;4.90;99.90;;;;;;5050416;28;20255;-72
2022/01/28 09:37:23;;;;;;;17.63;7.53;;;5.00;99.90;;;;;;5060526;28;20274;-72
2022/01/28 09:40:09;;;;;;;14.38;6.22;;;5.00;99.90;;;;;;5052920;28;20268;-71
2022/01/28 09:42:55;;;;;;;13.82;6.00;;;5.00;99.90;;;;;;5060513;28;20278;-72
2022/01/28 09:45:40;;;;;;;11.68;7.65;;;5.10;99.90;;;;;;5063955;28;20195;-72
2022/01/28 09:48:26;;;;;;;13.30;5.20;;;5.20;99.90;;;;;;5060849;28;20227;-72
2022/01/28 09:51:13;;;;;;;18.13;6.18;;;5.20;99.90;;;;;;5048715;28;20210;-72
2022/01/28 09:53:59;;;;;;;14.68;5.60;;;5.20;99.90;;;;;;5047566;28;20225;-72
2022/01/28 09:56:45;;;;;;;13.82;5.50;;;5.20;99.90;;;;;;5048087;28;20296;-72
2022/01/28 09:59:31;;;;;;;16.35;5.13;;;5.30;99.90;;;;;;5056617;28;20282;-72
2022/01/28 10:02:17;;;;;;;12.65;5.30;;;5.30;99.90;;;;;;5050244;28;20208;-72
2022/01/28 10:05:16;;;;;;;19.95;4.88;;;5.40;99.90;;;;;;5049571;28;20200;-72
2022/01/28 10:08:10;;;;;;;13.40;4.97;;;5.40;99.90;;;;;;5053075;28;20205;-73
2022/01/28 10:10:59;;;;;;;12.75;4.28;;;5.40;99.90;;;;;;5050122;28;20560;-72
2022/01/28 10:13:50;;;;;;;11.38;4.50;;;5.40;99.90;;;;;;5053698;28;20208;-72
2022/01/28 10:16:35;;;;;;;9.00;4.50;;;5.40;99.90;;;;;;5051938;28;20803;-73
2022/01/28 10:19:21;;;;;;;16.23;4.82;;;5.40;99.90;;;;;;5060751;28;20558;-72
2022/01/28 10:22:18;;;;;;;14.68;7.13;;;5.50;99.90;;;;;;5060543;28;20689;-71
2022/01/28 10:25:06;;;;;;;11.90;5.18;;;5.50;99.90;;;;;;5049239;28;20194;-72
2022/01/28 10:28:02;;;;;;;9.68;4.65;;;5.50;99.90;;;;;;5061649;28;20307;-72
2022/01/28 10:30:47;;;;;;;12.45;5.10;;;5.60;99.90;;;;;;5053770;28;20216;-72
2022/01/28 10:33:33;;;;;;;14.25;4.60;;;5.70;99.90;;;;;;5060306;28;20213;-73
2022/01/28 10:36:25;;;;;;;12.43;5.10;;;5.70;99.90;;;;;;5049338;28;20286;-73
2022/01/28 10:39:17;;;;;;;11.52;4.65;;;5.80;99.90;;;;;;5062410;28;20403;-71
2022/01/28 10:42:05;;;;;;;13.48;4.53;;;5.90;99.90;;;;;;5047082;28;20213;-72
2022/01/28 10:45:01;;;;;;;8.68;4.40;;;5.90;99.90;;;;;;5058002;28;20605;-72
2022/01/28 10:47:48;;;;;;;11.82;5.03;;;6.00;99.90;;;;;;5056988;28;20763;-73
2022/01/28 10:50:36;;;;;;;9.57;4.57;;;6.00;99.90;;;;;;5050218;28;20217;-72
2022/01/28 10:53:22;;;;;;;9.18;4.97;;;6.00;99.90;;;;;;5063462;28;20204;-72
2022/01/28 10:56:12;;;;;;;8.02;5.00;;;6.10;99.90;;;;;;5062855;28;20263;-72
2022/01/28 10:59:02;;;;;;;9.32;4.50;;;6.10;99.90;;;;;;5055731;28;20200;-72
2022/01/28 11:01:49;;;;;;;12.27;4.57;;;6.20;99.90;;;;;;5057336;28;20207;-73
2022/01/28 11:04:35;;;;;;;16.15;5.00;;;6.20;99.90;;;;;;5059387;28;20273;-73
2022/01/28 11:07:20;;;;;;;17.45;4.50;;;6.20;99.90;;;;;;5063226;28;20359;-73
2022/01/28 11:10:07;;;;;;;19.20;5.13;;;6.30;99.90;;;;;;5044501;28;20284;-73
2022/01/28 11:12:53;;;;;;;10.70;3.88;;;6.30;99.90;;;;;;5048415;28;20713;-72
2022/01/28 11:15:40;;;;;;;9.27;3.60;;;6.40;99.90;;;;;;5050323;28;20282;-72
2022/01/28 11:18:27;;;;;;;10.77;3.55;;;6.40;99.90;;;;;;5063467;28;20203;-72
2022/01/28 11:21:17;;;;;;;15.68;3.55;;;6.50;99.90;;;;;;5057445;28;20213;-73
2022/01/28 11:24:11;;;;;;;11.70;2.80;;;6.60;99.90;;;;;;5050405;28;20572;-73
2022/01/28 11:27:07;;;;;;;10.63;2.88;;;6.50;99.90;;;;;;5053529;28;20620;-72
2022/01/28 11:30:15;;;;;;;17.75;3.10;;;6.40;99.90;;;;;;5051574;28;20609;-71
2022/01/28 11:33:06;;;;;;;7.80;3.38;;;6.30;99.90;;;;;;5058233;28;20581;-72
2022/01/28 11:36:03;;;;;;;13.25;3.35;;;6.30;99.90;;;;;;5058543;28;20221;-72
2022/01/28 11:38:49;;;;;;;12.18;3.33;;;6.30;99.90;;;;;;5048668;28;20225;-72
2022/01/28 11:41:35;;;;;;;8.50;2.55;;;6.40;99.90;;;;;;5053168;28;20204;-73
2022/01/28 11:44:40;;;;;;;11.02;2.40;;;6.50;99.90;;;;;;5054541;28;20273;-73
2022/01/28 11:47:27;;;;;;;10.15;2.25;;;6.50;99.90;;;;;;5058990;28;20277;-73
2022/01/28 11:50:16;;;;;;;12.73;2.67;;;6.60;99.90;;;;;;5052423;28;20208;-73
2022/01/28 11:53:02;;;;;;;11.95;2.55;;;6.60;99.90;;;;;;5053413;28;20450;-72
2022/01/28 11:56:01;;;;;;;11.07;2.30;;;6.60;99.90;;;;;;5050891;28;20232;-72
2022/01/28 11:58:54;;;;;;;8.32;1.92;;;6.70;99.90;;;;;;5050272;28;20675;-73
2022/01/28 12:02:24;;;;;;;15.10;2.63;;;6.70;99.90;;;;;;5055159;28;20207;-73
2022/01/28 12:05:39;;;;;;;14.77;2.72;;;6.70;99.90;;;;;;5055258;28;20247;-73
2022/01/28 12:08:31;;;;;;;3.42;1.50;;;6.70;99.90;;;;;;5049010;28;20201;-72
2022/01/28 12:11:42;;;;;;;6.35;1.67;;;6.70;99.90;;;;;;5051438;28;20204;-73
2022/01/28 12:15:13;;;;;;;9.57;2.20;;;6.70;99.90;;;;;;5049915;28;20188;-72
2022/01/28 12:18:07;;;;;;;13.45;2.60;;;6.60;99.90;;;;;;5048197;28;20448;-72
2022/01/28 12:20:53;;;;;;;8.00;1.98;;;6.70;99.90;;;;;;5054253;28;20255;-72
2022/01/28 12:23:40;;;;;;;15.20;2.28;;;6.60;99.90;;;;;;5048339;28;20204;-73
2022/01/28 12:26:26;;;;;;;11.63;2.45;;;6.70;99.90;;;;;;5051032;28;20228;-72
2022/01/28 12:29:11;;;;;;;8.20;2.23;;;6.80;99.90;;;;;;5049177;28;20391;-73
2022/01/28 12:31:58;;;;;;;8.00;2.60;;;6.80;99.90;;;;;;5059214;28;20439;-72
2022/01/28 12:34:45;;;;;;;8.00;1.67;;;6.90;99.90;;;;;;5049245;28;20455;-73
2022/01/28 12:37:37;;;;;;;7.45;2.00;;;6.90;99.90;;;;;;5048380;28;20933;-73
2022/01/28 12:40:29;;;;;;;6.13;1.70;;;7.00;99.90;;;;;;5048053;28;20201;-73
2022/01/28 12:43:19;;;;;;;13.07;2.53;;;7.10;99.90;;;;;;5052246;28;20427;-73
2022/01/28 12:46:06;;;;;;;11.57;2.25;;;7.20;99.90;;;;;;5061449;28;20996;-73
2022/01/28 12:48:54;;;;;;;11.27;2.00;;;7.30;99.90;;;;;;5050462;28;20200;-72
2022/01/28 12:51:41;;;;;;;7.00;1.80;;;7.50;99.90;;;;;;5055324;28;20925;-73
2022/01/28 12:54:35;;;;;;;10.93;2.70;;;7.50;99.90;;;;;;5053959;28;20794;-72
2022/01/28 12:57:22;;;;;;;8.97;2.10;;;7.60;99.90;;;;;;5046532;28;20988;-71
2022/01/28 13:00:09;;;;;;;6.80;2.00;;;7.40;99.90;;;;;;5048419;28;20444;-73
2022/01/28 13:02:56;;;;;;;5.03;2.00;;;7.40;99.90;;;;;;5058563;28;20990;-73
2022/01/28 13:05:53;;;;;;;19.63;1.80;;;7.40;99.90;;;;;;5051830;28;20455;-73
2022/01/28 13:08:42;;;;;;;9.43;2.53;;;7.40;99.90;;;;;;5045472;28;20526;-73
2022/01/28 13:11:28;;;;;;;9.07;2.93;;;7.40;99.90;;;;;;5047858;28;20460;-73
2022/01/28 13:14:19;;;;;;;14.27;2.70;;;7.50;99.90;;;;;;5051835;28;20435;-73
2022/01/28 13:17:08;;;;;;;13.75;3.35;;;7.70;99.90;;;;;;5054458;28;20506;-73
2022/01/28 13:19:55;;;;;;;6.17;2.10;;;7.80;99.90;;;;;;5057023;28;20208;-73
2022/01/28 13:22:40;;;;;;;10.03;2.73;;;7.90;99.90;;;;;;5054306;28;20442;-73
2022/01/28 13:25:30;;;;;;;10.30;1.90;;;7.90;99.90;;;;;;5065936;28;20585;-73
2022/01/28 13:28:19;;;;;;;13.67;2.63;;;8.10;99.90;;;;;;5059419;28;20444;-73
2022/01/28 13:31:06;;;;;;;11.20;2.17;;;8.50;99.90;;;;;;5058219;28;20472;-73
2022/01/28 13:33:58;;;;;;;9.40;2.47;;;8.70;99.90;;;;;;5055437;28;20422;-73
2022/01/28 13:36:45;;;;;;;8.20;1.70;;;8.70;99.90;;;;;;5047341;28;20463;-72
2022/01/28 13:39:31;;;;;;;13.40;2.43;;;8.60;99.90;;;;;;5051237;28;20432;-73
2022/01/28 13:42:22;;;;;;;6.30;1.80;;;8.60;99.90;;;;;;5056734;28;20585;-72
2022/01/28 13:45:09;;;;;;;10.93;2.57;;;8.50;99.90;;;;;;5054189;28;20802;-73
2022/01/28 13:47:56;;;;;;;6.77;1.83;;;8.30;99.90;;;;;;5049210;28;21490;-73
2022/01/28 13:56:21;;;;;;;16.00;4.10;;;9.20;99.90;;;;;;5074462;28;20892;-86
2022/01/28 13:59:11;;;;;;;12.80;3.53;;;9.70;96.60;;;;;;5071114;28;20557;-85
2022/01/28 14:01:59;;;;;;;11.70;2.47;;;9.80;91.80;;;;;;5080760;28;20433;-86
2022/01/28 14:04:48;;;;;;;9.50;2.33;;;9.70;91.30;;;;;;5072657;28;20481;-86
2022/01/28 14:07:34;;;;;;;11.47;2.23;;;9.50;90.10;;;;;;5065297;28;20462;-86
2022/01/28 14:10:19;;;;;;;17.53;2.27;;;9.50;91.70;;;;;;5077278;28;20466;-86
2022/01/28 14:13:19;;;;;;;7.03;1.77;;;9.80;92.20;;;;;;5084843;28;20445;-86
2022/01/28 14:16:13;;;;;;;13.10;3.20;;;9.90;81.10;;;;;;5071883;28;20917;-86
2022/01/28 14:18:59;;;;;;;6.67;2.30;;;9.50;83.10;;;;;;5083754;28;20516;-86
2022/01/28 14:21:48;;;;;;;7.20;2.20;;;9.10;84.90;;;;;;5072395;28;20434;-86
2022/01/28 14:24:36;;;;;;;13.57;3.37;;;8.60;91.70;;;;;;5079873;28;20426;-86
2022/01/28 14:30:33;;;;;;;16.37;2.37;;;8.30;93.40;;;;;;5037147;28;20466;-85
2022/01/28 14:33:19;;;;;;;12.53;2.80;;;8.10;93.10;;;;;;5075739;28;20419;-85
2022/01/28 14:36:05;;;;;;;12.20;2.10;;;7.90;96.10;;;;;;5064384;28;20522;-85
2022/01/28 14:38:53;;;;;;;14.13;2.33;;;7.80;96.10;;;;;;5067138;28;20450;-85
2022/01/28 14:41:39;;;;;;;13.40;2.00;;;7.80;95.70;;;;;;5070986;28;20455;-86
2022/01/28 14:44:25;;;;;;;12.37;3.03;;;7.70;94.00;;;;;;5065935;28;20443;-85
2022/01/28 14:47:11;;;;;;;6.93;1.93;;;7.70;94.90;;;;;;5067227;28;20981;-85
2022/01/28 14:49:56;;;;;;;5.57;1.70;;;7.70;95.70;;;;;;5069829;28;20466;-85
2022/01/28 14:52:42;;;;;;;16.08;2.08;;;7.70;95.10;;;;;;5069712;28;20449;-85
2022/01/28 14:55:29;;;;;;;12.55;2.10;;;7.60;95.10;;;;;;5071598;28;20228;-85
2022/01/28 14:58:15;;;;;;;9.47;1.97;;;7.60;95.80;;;;;;5076352;28;20211;-84
2022/01/28 15:01:01;;;;;;;6.63;1.80;;;7.60;95.90;;;;;;5071396;28;20434;-85
2022/01/28 15:03:47;;;;;;;13.07;3.33;;;7.60;95.70;;;;;;5077901;28;20447;-85
2022/01/28 15:06:32;;;;;;;7.37;2.77;;;7.50;96.10;;;;;;5066776;28;20223;-84
2022/01/28 15:09:18;;;;;;;8.73;2.70;;;7.50;97.10;;;;;;5065709;28;20480;-85
2022/01/28 15:12:06;;;;;;;11.67;2.20;;;7.60;98.20;;;;;;5076946;28;20537;-86
2022/01/28 15:14:52;;;;;;;18.17;2.72;;;7.60;97.30;;;;;;5069942;28;20455;-85
2022/01/28 15:17:38;;;;;;;11.97;2.90;;;7.60;97.00;;;;;;5071537;28;20290;-85
2022/01/28 15:20:28;;;;;;;9.63;2.23;;;7.50;97.40;;;;;;5074030;28;20459;-86
2022/01/28 15:23:13;;;;;;;9.33;2.77;;;7.40;97.70;;;;;;5075563;28;20512;-84
2022/01/28 15:26:00;;;;;;;10.55;2.30;;;7.40;99.00;;;;;;5063270;28;20826;-86
2022/01/28 15:29:00;;;;;;;6.15;1.90;;;7.30;99.90;;;;;;5072523;28;20238;-85
2022/01/28 15:35:05;;;;;;;13.30;1.87;;;7.20;99.90;;;;;;5071588;28;20337;-86